Terminal Aerodrome Forecast
Issued by NWS Knoxville/Tri Cities, TN

Home | Current Version | Previous Version | Text Only | Print | Product List | Glossary On
Versions: 1 2 3 4 5 6 7 8 9 10 11 12 13 14 15 16 17 18 19 20 21 22 23 24 25 26
250
FTUS44 KMRX 191134
TAFTYS
TAF
KTYS 191134Z 1912/2012 03003KT P6SM SKC
     FM191600 VRB04KT P6SM SCT100 SCT250
     FM192100 25006KT P6SM VCTS SCT050CB BKN100
     FM200100 VRB03KT P6SM SCT250
     FM201000 00000KT 4SM BR SKC=

USA.gov is the U.S. government's official web portal to all federal, state and local government web resources and services.